sensor_id;sensor_type;location;lat;lon;timestamp;P1;durP1;ratioP1;P2;durP2;ratioP2
57233;SDS011;43090;52.604;13.318;2022-11-15T00:09:02;59.08;;;27.77;;
57233;SDS011;43090;52.604;13.318;2022-11-15T00:19:59;58.55;;;26.75;;
57233;SDS011;43090;52.604;13.318;2022-11-15T00:30:06;62.72;;;29.50;;
57233;SDS011;43090;52.604;13.318;2022-11-15T00:32:36;65.43;;;29.67;;
57233;SDS011;43090;52.604;13.318;2022-11-15T00:35:06;62.10;;;28.40;;
57233;SDS011;43090;52.604;13.318;2022-11-15T00:45:28;66.22;;;30.05;;
57233;SDS011;43090;52.604;13.318;2022-11-15T00:49:02;68.25;;;30.27;;
57233;SDS011;43090;52.604;13.318;2022-11-15T01:02:56;55.95;;;25.80;;
57233;SDS011;43090;52.604;13.318;2022-11-15T01:17:30;56.00;;;25.88;;
57233;SDS011;43090;52.604;13.318;2022-11-15T01:20:33;59.03;;;28.02;;
57233;SDS011;43090;52.604;13.318;2022-11-15T01:23:00;58.33;;;26.55;;
57233;SDS011;43090;52.604;13.318;2022-11-15T01:25:29;53.65;;;25.30;;
57233;SDS011;43090;52.604;13.318;2022-11-15T01:27:57;55.55;;;27.35;;
57233;SDS011;43090;52.604;13.318;2022-11-15T01:30:28;60.47;;;27.73;;
57233;SDS011;43090;52.604;13.318;2022-11-15T01:32:59;57.25;;;28.10;;
57233;SDS011;43090;52.604;13.318;2022-11-15T01:36:05;61.75;;;29.20;;
57233;SDS011;43090;52.604;13.318;2022-11-15T01:39:15;59.40;;;28.88;;
57233;SDS011;43090;52.604;13.318;2022-11-15T01:41:47;62.97;;;29.85;;
57233;SDS011;43090;52.604;13.318;2022-11-15T01:44:37;64.10;;;28.80;;
57233;SDS011;43090;52.604;13.318;2022-11-15T01:47:42;58.60;;;26.57;;
57233;SDS011;43090;52.604;13.318;2022-11-15T01:50:36;61.83;;;28.52;;
57233;SDS011;43090;52.604;13.318;2022-11-15T01:56:25;63.72;;;28.08;;
57233;SDS011;43090;52.604;13.318;2022-11-15T01:59:24;53.40;;;26.20;;
57233;SDS011;43090;52.604;13.318;2022-11-15T02:02:24;57.47;;;27.23;;
57233;SDS011;43090;52.604;13.318;2022-11-15T02:05:46;56.60;;;26.10;;
57233;SDS011;43090;52.604;13.318;2022-11-15T02:08:35;59.58;;;27.08;;
57233;SDS011;43090;52.604;13.318;2022-11-15T02:11:12;61.58;;;28.00;;
57233;SDS011;43090;52.604;13.318;2022-11-15T02:21:11;62.25;;;28.13;;
57233;SDS011;43090;52.604;13.318;2022-11-15T02:31:45;60.20;;;28.33;;
57233;SDS011;43090;52.604;13.318;2022-11-15T02:38:39;65.55;;;27.90;;
57233;SDS011;43090;52.604;13.318;2022-11-15T02:41:17;57.33;;;26.95;;
57233;SDS011;43090;52.604;13.318;2022-11-15T02:46:38;61.90;;;28.08;;
57233;SDS011;43090;52.604;13.318;2022-11-15T02:49:32;63.35;;;28.85;;
57233;SDS011;43090;52.604;13.318;2022-11-15T02:52:01;56.30;;;27.20;;
57233;SDS011;43090;52.604;13.318;2022-11-15T02:54:31;66.55;;;29.00;;
57233;SDS011;43090;52.604;13.318;2022-11-15T02:57:02;59.70;;;27.02;;
57233;SDS011;43090;52.604;13.318;2022-11-15T02:59:38;56.35;;;26.05;;
57233;SDS011;43090;52.604;13.318;2022-11-15T03:02:42;57.63;;;26.08;;
57233;SDS011;43090;52.604;13.318;2022-11-15T03:05:57;58.53;;;25.17;;
57233;SDS011;43090;52.604;13.318;2022-11-15T03:09:39;57.13;;;27.10;;
57233;SDS011;43090;52.604;13.318;2022-11-15T03:16:05;62.90;;;26.15;;
57233;SDS011;43090;52.604;13.318;2022-11-15T03:19:39;66.57;;;28.38;;
57233;SDS011;43090;52.604;13.318;2022-11-15T03:22:56;55.70;;;26.65;;
57233;SDS011;43090;52.604;13.318;2022-11-15T03:26:04;59.33;;;26.55;;
57233;SDS011;43090;52.604;13.318;2022-11-15T03:32:30;60.53;;;26.85;;
57233;SDS011;43090;52.604;13.318;2022-11-15T03:35:35;61.75;;;27.88;;
57233;SDS011;43090;52.604;13.318;2022-11-15T03:38:24;59.28;;;26.02;;
57233;SDS011;43090;52.604;13.318;2022-11-15T03:41:13;63.80;;;27.65;;
57233;SDS011;43090;52.604;13.318;2022-11-15T03:44:31;53.50;;;26.38;;
57233;SDS011;43090;52.604;13.318;2022-11-15T03:48:14;58.40;;;25.00;;
57233;SDS011;43090;52.604;13.318;2022-11-15T03:51:38;53.75;;;25.50;;
57233;SDS011;43090;52.604;13.318;2022-11-15T03:58:14;64.78;;;27.77;;
57233;SDS011;43090;52.604;13.318;2022-11-15T04:00:44;55.80;;;25.45;;
57233;SDS011;43090;52.604;13.318;2022-11-15T04:03:13;58.33;;;25.83;;
57233;SDS011;43090;52.604;13.318;2022-11-15T04:05:42;55.55;;;26.98;;
57233;SDS011;43090;52.604;13.318;2022-11-15T04:08:11;57.38;;;27.45;;
57233;SDS011;43090;52.604;13.318;2022-11-15T04:10:48;56.70;;;27.63;;
57233;SDS011;43090;52.604;13.318;2022-11-15T04:13:27;55.70;;;27.13;;
57233;SDS011;43090;52.604;13.318;2022-11-15T04:16:21;62.67;;;26.27;;
57233;SDS011;43090;52.604;13.318;2022-11-15T04:22:04;57.47;;;25.98;;
57233;SDS011;43090;52.604;13.318;2022-11-15T04:24:54;54.97;;;25.60;;
57233;SDS011;43090;52.604;13.318;2022-11-15T04:28:07;53.83;;;25.67;;
57233;SDS011;43090;52.604;13.318;2022-11-15T04:37:09;54.28;;;26.45;;
57233;SDS011;43090;52.604;13.318;2022-11-15T04:39:50;61.92;;;27.65;;
57233;SDS011;43090;52.604;13.318;2022-11-15T04:42:51;58.40;;;25.85;;
57233;SDS011;43090;52.604;13.318;2022-11-15T04:47:45;62.05;;;27.50;;
57233;SDS011;43090;52.604;13.318;2022-11-15T04:57:22;54.75;;;24.90;;
57233;SDS011;43090;52.604;13.318;2022-11-15T04:59:55;55.53;;;26.10;;
57233;SDS011;43090;52.604;13.318;2022-11-15T05:02:37;46.45;;;23.67;;
57233;SDS011;43090;52.604;13.318;2022-11-15T05:08:21;48.53;;;22.98;;
57233;SDS011;43090;52.604;13.318;2022-11-15T05:11:20;54.33;;;24.33;;
57233;SDS011;43090;52.604;13.318;2022-11-15T05:13:56;52.22;;;24.92;;
57233;SDS011;43090;52.604;13.318;2022-11-15T05:16:25;50.78;;;24.23;;
57233;SDS011;43090;52.604;13.318;2022-11-15T05:19:09;53.80;;;24.83;;
57233;SDS011;43090;52.604;13.318;2022-11-15T05:26:02;48.92;;;24.05;;
57233;SDS011;43090;52.604;13.318;2022-11-15T05:33:06;52.17;;;24.23;;
57233;SDS011;43090;52.604;13.318;2022-11-15T05:35:38;46.65;;;23.23;;
57233;SDS011;43090;52.604;13.318;2022-11-15T05:38:10;53.13;;;25.23;;
57233;SDS011;43090;52.604;13.318;2022-11-15T05:40:37;52.03;;;23.83;;
57233;SDS011;43090;52.604;13.318;2022-11-15T05:43:04;57.10;;;27.75;;
57233;SDS011;43090;52.604;13.318;2022-11-15T05:45:34;55.97;;;24.92;;
57233;SDS011;43090;52.604;13.318;2022-11-15T05:48:07;56.90;;;26.42;;
57233;SDS011;43090;52.604;13.318;2022-11-15T05:50:36;53.58;;;25.65;;
57233;SDS011;43090;52.604;13.318;2022-11-15T05:53:07;47.92;;;22.60;;
57233;SDS011;43090;52.604;13.318;2022-11-15T05:58:15;55.33;;;25.00;;
57233;SDS011;43090;52.604;13.318;2022-11-15T06:00:43;52.13;;;23.40;;
57233;SDS011;43090;52.604;13.318;2022-11-15T06:03:09;57.92;;;25.13;;
57233;SDS011;43090;52.604;13.318;2022-11-15T06:05:39;53.85;;;26.05;;
57233;SDS011;43090;52.604;13.318;2022-11-15T06:08:43;59.63;;;26.17;;
57233;SDS011;43090;52.604;13.318;2022-11-15T06:15:31;56.95;;;25.63;;
57233;SDS011;43090;52.604;13.318;2022-11-15T06:18:13;60.05;;;26.73;;
57233;SDS011;43090;52.604;13.318;2022-11-15T06:20:45;61.08;;;26.20;;
57233;SDS011;43090;52.604;13.318;2022-11-15T06:23:12;56.95;;;26.05;;
57233;SDS011;43090;52.604;13.318;2022-11-15T06:25:39;67.80;;;30.67;;
57233;SDS011;43090;52.604;13.318;2022-11-15T06:30:45;58.75;;;25.20;;
57233;SDS011;43090;52.604;13.318;2022-11-15T06:33:41;51.58;;;25.08;;
57233;SDS011;43090;52.604;13.318;2022-11-15T06:36:12;59.22;;;27.10;;
57233;SDS011;43090;52.604;13.318;2022-11-15T06:41:53;51.53;;;24.45;;
57233;SDS011;43090;52.604;13.318;2022-11-15T06:44:22;45.33;;;23.95;;
57233;SDS011;43090;52.604;13.318;2022-11-15T06:46:49;53.72;;;25.08;;
57233;SDS011;43090;52.604;13.318;2022-11-15T06:56:47;56.75;;;25.15;;
57233;SDS011;43090;52.604;13.318;2022-11-15T07:07:38;59.25;;;26.48;;
57233;SDS011;43090;52.604;13.318;2022-11-15T07:10:06;58.47;;;26.33;;
57233;SDS011;43090;52.604;13.318;2022-11-15T07:12:34;58.63;;;27.23;;
57233;SDS011;43090;52.604;13.318;2022-11-15T07:15:03;54.55;;;26.67;;
57233;SDS011;43090;52.604;13.318;2022-11-15T07:17:35;61.58;;;26.73;;
57233;SDS011;43090;52.604;13.318;2022-11-15T07:20:08;55.30;;;26.88;;
57233;SDS011;43090;52.604;13.318;2022-11-15T07:22:35;62.58;;;25.83;;
57233;SDS011;43090;52.604;13.318;2022-11-15T07:27:28;56.08;;;26.13;;
57233;SDS011;43090;52.604;13.318;2022-11-15T07:29:55;54.63;;;26.83;;
57233;SDS011;43090;52.604;13.318;2022-11-15T07:32:22;64.57;;;27.73;;
57233;SDS011;43090;52.604;13.318;2022-11-15T07:34:49;56.92;;;27.38;;
57233;SDS011;43090;52.604;13.318;2022-11-15T07:39:43;61.22;;;27.02;;
57233;SDS011;43090;52.604;13.318;2022-11-15T07:42:10;66.53;;;27.30;;
57233;SDS011;43090;52.604;13.318;2022-11-15T07:45:22;59.90;;;27.15;;
57233;SDS011;43090;52.604;13.318;2022-11-15T07:47:54;58.10;;;27.70;;
57233;SDS011;43090;52.604;13.318;2022-11-15T07:57:33;56.90;;;26.47;;
57233;SDS011;43090;52.604;13.318;2022-11-15T08:07:10;56.28;;;27.83;;
57233;SDS011;43090;52.604;13.318;2022-11-15T08:09:40;63.97;;;29.33;;
57233;SDS011;43090;52.604;13.318;2022-11-15T08:17:10;69.75;;;30.45;;
57233;SDS011;43090;52.604;13.318;2022-11-15T08:20:04;66.32;;;30.83;;
57233;SDS011;43090;52.604;13.318;2022-11-15T08:22:53;74.05;;;32.58;;
57233;SDS011;43090;52.604;13.318;2022-11-15T08:25:39;68.00;;;31.58;;
57233;SDS011;43090;52.604;13.318;2022-11-15T08:28:09;66.07;;;30.52;;
57233;SDS011;43090;52.604;13.318;2022-11-15T08:31:11;59.25;;;28.58;;
57233;SDS011;43090;52.604;13.318;2022-11-15T08:37:41;68.75;;;30.60;;
57233;SDS011;43090;52.604;13.318;2022-11-15T08:40:52;63.97;;;32.47;;
57233;SDS011;43090;52.604;13.318;2022-11-15T08:43:27;72.00;;;32.33;;
57233;SDS011;43090;52.604;13.318;2022-11-15T08:53:11;68.90;;;30.97;;
57233;SDS011;43090;52.604;13.318;2022-11-15T08:55:39;65.63;;;30.75;;
57233;SDS011;43090;52.604;13.318;2022-11-15T08:58:06;70.85;;;30.63;;
57233;SDS011;43090;52.604;13.318;2022-11-15T09:00:33;66.88;;;31.38;;
57233;SDS011;43090;52.604;13.318;2022-11-15T09:03:03;62.78;;;30.67;;
57233;SDS011;43090;52.604;13.318;2022-11-15T09:05:37;72.20;;;31.73;;
57233;SDS011;43090;52.604;13.318;2022-11-15T09:34:57;66.47;;;29.20;;
57233;SDS011;43090;52.604;13.318;2022-11-15T09:38:38;74.25;;;30.00;;
57233;SDS011;43090;52.604;13.318;2022-11-15T10:05:18;50.03;;;24.23;;
57233;SDS011;43090;52.604;13.318;2022-11-15T10:39:28;29.25;;;16.98;;
57233;SDS011;43090;52.604;13.318;2022-11-15T10:57:26;35.40;;;18.60;;
57233;SDS011;43090;52.604;13.318;2022-11-15T11:15:24;36.90;;;17.88;;
57233;SDS011;43090;52.604;13.318;2022-11-15T11:18:22;37.65;;;19.48;;
57233;SDS011;43090;52.604;13.318;2022-11-15T11:53:27;35.08;;;16.67;;
57233;SDS011;43090;52.604;13.318;2022-11-15T16:00:50;35.58;;;17.75;;
57233;SDS011;43090;52.604;13.318;2022-11-15T16:04:01;31.23;;;15.38;;
57233;SDS011;43090;52.604;13.318;2022-11-15T16:22:08;32.30;;;15.68;;
57233;SDS011;43090;52.604;13.318;2022-11-15T16:36:03;31.65;;;15.63;;
57233;SDS011;43090;52.604;13.318;2022-11-15T16:39:08;40.17;;;19.20;;
57233;SDS011;43090;52.604;13.318;2022-11-15T16:42:06;43.03;;;20.95;;
57233;SDS011;43090;52.604;13.318;2022-11-15T16:44:56;41.40;;;21.80;;
57233;SDS011;43090;52.604;13.318;2022-11-15T17:19:24;55.80;;;27.08;;
57233;SDS011;43090;52.604;13.318;2022-11-15T17:22:30;50.30;;;26.70;;
57233;SDS011;43090;52.604;13.318;2022-11-15T17:29:46;48.35;;;26.40;;
57233;SDS011;43090;52.604;13.318;2022-11-15T17:44:08;52.35;;;26.17;;
57233;SDS011;43090;52.604;13.318;2022-11-15T17:46:35;55.05;;;28.08;;
57233;SDS011;43090;52.604;13.318;2022-11-15T18:22:17;54.88;;;29.17;;
57233;SDS011;43090;52.604;13.318;2022-11-15T19:41:35;86.47;;;38.10;;
